Time;durP1;ratioP1;P1;durP2;ratioP2;P2;SDS_P1;SDS_P2;PMS_P1;PMS_P2;Temp;Humidity;BMP_temperature;BMP_pressure;BME280_temperature;BME280_humidity;BME280_pressure;Samples;Min_cycle;Max_cycle;Signal;HPM_P1;HPM_P2
2021/08/15 00:00:39;;;;;;;6.68;3.58;;;;;;;;;;5033060;28;20190;-77
2021/08/15 00:03:06;;;;;;;7.65;3.70;;;;;;;;;;5032927;28;20017;-78
2021/08/15 00:05:32;;;;;;;7.63;3.40;;;;;;;;;;5032951;28;20100;-77
2021/08/15 00:07:58;;;;;;;9.18;4.43;;;;;;;;;;5032781;28;20460;-76
2021/08/15 00:10:24;;;;;;;7.63;3.92;;;;;;;;;;5032947;28;20038;-76
2021/08/15 00:12:50;;;;;;;9.30;4.05;;;;;;;;;;5032899;28;20501;-75
2021/08/15 00:15:17;;;;;;;10.52;4.20;;;;;;;;;;5032872;28;20033;-76
2021/08/15 00:17:43;;;;;;;7.43;3.90;;;;;;;;;;5032890;28;20489;-76
2021/08/15 00:20:10;;;;;;;11.40;4.65;;;;;;;;;;5033080;28;20105;-78
2021/08/15 00:22:38;;;;;;;7.95;3.78;;;;;;;;;;5033126;28;20031;-77
2021/08/15 00:25:05;;;;;;;9.18;4.05;;;;;;;;;;5032855;28;20026;-76
2021/08/15 00:27:30;;;;;;;8.20;4.05;;;;;;;;;;5033012;28;20386;-75
2021/08/15 00:29:56;;;;;;;8.23;3.92;;;;;;;;;;5033583;28;20033;-75
2021/08/15 00:32:22;;;;;;;5.82;3.40;;;;;;;;;;5036547;28;20058;-76
2021/08/15 00:34:48;;;;;;;9.38;3.97;;;;;;;;;;5035474;28;20029;-77
2021/08/15 00:37:14;;;;;;;11.52;4.28;;;;;;;;;;5036421;28;20026;-77
2021/08/15 00:39:40;;;;;;;8.48;3.72;;;;;;;;;;5036321;28;20025;-76
2021/08/15 00:42:07;;;;;;;8.45;4.07;;;;;;;;;;5036603;28;20025;-76
2021/08/15 00:44:33;;;;;;;6.30;3.60;;;;;;;;;;5036844;28;20022;-78
2021/08/15 00:46:59;;;;;;;8.35;3.58;;;;;;;;;;5036267;28;20025;-75
2021/08/15 00:49:25;;;;;;;8.93;4.43;;;;;;;;;;5036488;28;20032;-78
2021/08/15 00:51:51;;;;;;;9.02;3.75;;;;;;;;;;5036205;28;20025;-76
2021/08/15 00:54:18;;;;;;;7.18;3.65;;;;;;;;;;5036236;28;20393;-76
2021/08/15 00:56:47;;;;;;;7.90;3.97;;;;;;;;;;5036061;28;20031;-75
2021/08/15 00:59:13;;;;;;;8.20;3.55;;;;;;;;;;5035962;28;20034;-76
2021/08/15 01:01:39;;;;;;;8.02;3.88;;;;;;;;;;5036292;28;20040;-76
2021/08/15 01:04:06;;;;;;;8.38;4.05;;;;;;;;;;5035906;28;20385;-75
2021/08/15 01:06:33;;;;;;;9.63;3.97;;;;;;;;;;5035893;28;20505;-77
2021/08/15 01:08:59;;;;;;;9.50;4.07;;;;;;;;;;5035864;28;20083;-75
2021/08/15 01:11:27;;;;;;;7.88;3.67;;;;;;;;;;5035725;28;20417;-77
2021/08/15 01:13:54;;;;;;;9.57;4.30;;;;;;;;;;5035799;28;20128;-75
2021/08/15 01:16:20;;;;;;;8.52;3.95;;;;;;;;;;5035965;28;20090;-76
2021/08/15 01:18:46;;;;;;;6.68;3.72;;;;;;;;;;5035633;28;20029;-77
2021/08/15 01:21:13;;;;;;;9.70;4.05;;;;;;;;;;5035655;28;20021;-74
2021/08/15 01:23:43;;;;;;;9.20;4.07;;;;;;;;;;5035646;28;20017;-76
2021/08/15 01:26:10;;;;;;;8.32;4.20;;;;;;;;;;5035840;28;20029;-75
2021/08/15 01:28:38;;;;;;;8.05;4.22;;;;;;;;;;5035479;28;20029;-77
2021/08/15 01:31:04;;;;;;;9.65;4.15;;;;;;;;;;5035463;28;20474;-77
2021/08/15 01:33:35;;;;;;;6.72;3.35;;;;;;;;;;5034133;28;20449;-75
2021/08/15 01:36:02;;;;;;;7.78;3.67;;;;;;;;;;5035666;28;20083;-77
2021/08/15 01:38:29;;;;;;;10.10;3.88;;;;;;;;;;5035259;28;20036;-76
2021/08/15 01:40:56;;;;;;;8.18;3.58;;;;;;;;;;5035328;28;20029;-77
2021/08/15 01:43:22;;;;;;;9.02;3.70;;;;;;;;;;5035220;28;20025;-75
2021/08/15 01:45:48;;;;;;;10.40;4.18;;;;;;;;;;5035722;28;20083;-77
2021/08/15 01:48:15;;;;;;;8.85;3.85;;;;;;;;;;5035398;28;20085;-76
2021/08/15 01:50:41;;;;;;;7.38;3.58;;;;;;;;;;5035345;28;20033;-77
2021/08/15 01:53:08;;;;;;;8.48;3.60;;;;;;;;;;5035017;28;20035;-77
2021/08/15 01:55:34;;;;;;;8.25;3.85;;;;;;;;;;5033728;28;20434;-76
2021/08/15 01:58:00;;;;;;;8.60;3.92;;;;;;;;;;5035197;28;20033;-76
2021/08/15 02:00:26;;;;;;;6.88;3.97;;;;;;;;;;5035084;28;20109;-77
2021/08/15 02:02:52;;;;;;;7.13;3.50;;;;;;;;;;5034938;28;20045;-77
2021/08/15 02:05:19;;;;;;;10.30;4.20;;;;;;;;;;5035083;28;20037;-75
2021/08/15 02:07:46;;;;;;;9.00;4.00;;;;;;;;;;5034424;28;20464;-78
2021/08/15 02:10:13;;;;;;;7.97;4.13;;;;;;;;;;5034729;28;20499;-76
2021/08/15 02:12:39;;;;;;;8.05;3.90;;;;;;;;;;5034972;28;20025;-77
2021/08/15 02:15:05;;;;;;;7.40;3.78;;;;;;;;;;5034627;28;20084;-76
2021/08/15 02:17:31;;;;;;;7.38;3.75;;;;;;;;;;5035077;28;20056;-75
2021/08/15 02:19:57;;;;;;;7.28;3.60;;;;;;;;;;5033146;28;20397;-78
2021/08/15 02:22:23;;;;;;;9.18;3.65;;;;;;;;;;5034480;28;20029;-75
2021/08/15 02:24:49;;;;;;;7.82;3.47;;;;;;;;;;5034702;28;20036;-76
2021/08/15 02:27:15;;;;;;;9.65;3.75;;;;;;;;;;5034900;28;20400;-75
2021/08/15 02:29:41;;;;;;;7.30;3.85;;;;;;;;;;5034304;28;20029;-76
2021/08/15 02:32:07;;;;;;;7.20;3.40;;;;;;;;;;5034309;28;20459;-76
2021/08/15 02:34:33;;;;;;;8.10;3.88;;;;;;;;;;5034212;28;20064;-74
2021/08/15 02:36:59;;;;;;;9.25;4.32;;;;;;;;;;5032895;28;20056;-76
2021/08/15 02:39:25;;;;;;;8.30;4.20;;;;;;;;;;5034054;28;20394;-75
2021/08/15 02:41:51;;;;;;;10.23;4.13;;;;;;;;;;5034143;28;20104;-77
2021/08/15 02:44:17;;;;;;;7.05;3.35;;;;;;;;;;5034063;28;20064;-78
2021/08/15 02:46:43;;;;;;;5.25;2.92;;;;;;;;;;5034324;28;20381;-75
2021/08/15 02:49:10;;;;;;;8.13;3.78;;;;;;;;;;5034001;28;20565;-77
2021/08/15 02:51:36;;;;;;;7.13;3.67;;;;;;;;;;5034000;28;20075;-75
2021/08/15 02:54:02;;;;;;;8.50;3.45;;;;;;;;;;5033399;28;20029;-78
2021/08/15 02:56:29;;;;;;;7.90;3.67;;;;;;;;;;5033852;28;20029;-74
2021/08/15 02:58:55;;;;;;;9.18;3.72;;;;;;;;;;5033790;28;20083;-75
2021/08/15 03:01:21;;;;;;;7.20;3.47;;;;;;;;;;5032497;28;20024;-77
2021/08/15 03:03:47;;;;;;;6.07;3.30;;;;;;;;;;5033671;28;20025;-76
2021/08/15 03:06:13;;;;;;;9.15;3.67;;;;;;;;;;5033677;28;20045;-76
2021/08/15 03:08:39;;;;;;;7.70;3.80;;;;;;;;;;5032376;28;20029;-76
2021/08/15 03:11:05;;;;;;;8.20;3.80;;;;;;;;;;5032302;28;20026;-75
2021/08/15 03:13:31;;;;;;;7.13;3.50;;;;;;;;;;5033535;28;20025;-75
2021/08/15 03:15:57;;;;;;;6.88;3.38;;;;;;;;;;5034088;28;20037;-75
2021/08/15 03:18:23;;;;;;;7.50;3.90;;;;;;;;;;5033453;28;20032;-76
2021/08/15 03:20:50;;;;;;;6.55;3.17;;;;;;;;;;5032220;28;20394;-76
2021/08/15 03:23:16;;;;;;;7.00;3.38;;;;;;;;;;5033740;28;20013;-79
2021/08/15 03:25:42;;;;;;;7.03;3.53;;;;;;;;;;5033420;28;20025;-74
2021/08/15 03:28:08;;;;;;;7.50;3.45;;;;;;;;;;5033398;28;20394;-77
2021/08/15 03:30:34;;;;;;;7.97;3.72;;;;;;;;;;5033298;28;20449;-75
2021/08/15 03:33:01;;;;;;;6.50;3.50;;;;;;;;;;5033609;28;20052;-77
2021/08/15 03:35:27;;;;;;;6.45;3.35;;;;;;;;;;5033272;28;20036;-76
2021/08/15 03:37:53;;;;;;;6.93;3.58;;;;;;;;;;5033237;28;20025;-77
2021/08/15 03:40:19;;;;;;;6.90;3.60;;;;;;;;;;5033177;28;20042;-77
2021/08/15 03:42:45;;;;;;;6.70;3.67;;;;;;;;;;5033478;28;20544;-76
2021/08/15 03:45:11;;;;;;;7.05;3.00;;;;;;;;;;5033164;28;20025;-77
2021/08/15 03:47:37;;;;;;;7.40;3.60;;;;;;;;;;5033153;28;20044;-75
2021/08/15 03:50:06;;;;;;;9.85;3.80;;;;;;;;;;5033123;28;20398;-76
2021/08/15 03:52:32;;;;;;;5.90;2.97;;;;;;;;;;5033156;28;20080;-75
2021/08/15 03:54:58;;;;;;;7.72;3.75;;;;;;;;;;5033400;28;20029;-75
2021/08/15 03:57:24;;;;;;;5.50;3.50;;;;;;;;;;5033056;28;20026;-77
2021/08/15 03:59:50;;;;;;;6.10;3.35;;;;;;;;;;5032982;28;20059;-75
2021/08/15 04:02:16;;;;;;;8.57;3.20;;;;;;;;;;5031733;28;20034;-76
2021/08/15 04:04:42;;;;;;;8.85;3.45;;;;;;;;;;5035144;28;20030;-77
2021/08/15 04:07:08;;;;;;;8.38;3.90;;;;;;;;;;5036824;28;20049;-75
2021/08/15 04:09:34;;;;;;;8.52;3.83;;;;;;;;;;5036969;28;20035;-76
2021/08/15 04:12:00;;;;;;;6.97;3.60;;;;;;;;;;5037170;28;20029;-75
2021/08/15 04:14:26;;;;;;;5.93;3.30;;;;;;;;;;5037134;28;20022;-78
2021/08/15 04:16:52;;;;;;;6.00;3.50;;;;;;;;;;5036832;28;20028;-78
2021/08/15 04:19:18;;;;;;;6.45;3.33;;;;;;;;;;5036997;28;20486;-75
2021/08/15 04:21:44;;;;;;;8.60;3.85;;;;;;;;;;5036727;28;20021;-76
2021/08/15 04:24:10;;;;;;;6.45;3.50;;;;;;;;;;5036680;28;20081;-76
2021/08/15 04:26:36;;;;;;;6.90;3.50;;;;;;;;;;5036916;28;20386;-75
2021/08/15 04:29:02;;;;;;;7.90;3.70;;;;;;;;;;5036587;28;20109;-77
2021/08/15 04:31:28;;;;;;;6.57;3.45;;;;;;;;;;5036888;28;20029;-77
2021/08/15 04:33:54;;;;;;;7.35;3.80;;;;;;;;;;5036548;28;20112;-75
2021/08/15 04:36:20;;;;;;;5.93;2.85;;;;;;;;;;5036818;28;20087;-76
2021/08/15 04:38:46;;;;;;;7.68;3.13;;;;;;;;;;5036672;28;20116;-76
2021/08/15 04:41:12;;;;;;;8.20;3.40;;;;;;;;;;5035155;28;20501;-75
2021/08/15 04:43:38;;;;;;;6.22;3.17;;;;;;;;;;5036326;28;20025;-75
2021/08/15 04:46:04;;;;;;;4.70;2.65;;;;;;;;;;5036345;28;20052;-79
2021/08/15 04:48:30;;;;;;;8.10;3.88;;;;;;;;;;5036238;28;20456;-76
2021/08/15 04:50:56;;;;;;;8.18;2.85;;;;;;;;;;5036213;28;20024;-75
2021/08/15 04:53:22;;;;;;;6.18;3.03;;;;;;;;;;5036203;28;20029;-77
2021/08/15 04:55:48;;;;;;;6.38;2.90;;;;;;;;;;5036437;28;20103;-77
2021/08/15 04:58:14;;;;;;;7.18;3.30;;;;;;;;;;5034873;28;20030;-75
2021/08/15 05:00:40;;;;;;;5.93;3.00;;;;;;;;;;5035946;28;20029;-78
2021/08/15 05:03:07;;;;;;;10.40;3.30;;;;;;;;;;5035923;28;20025;-77
2021/08/15 05:05:33;;;;;;;6.35;3.53;;;;;;;;;;5036032;28;20067;-75
2021/08/15 05:07:59;;;;;;;5.00;3.30;;;;;;;;;;5034548;28;20132;-76
2021/08/15 05:10:25;;;;;;;9.57;3.55;;;;;;;;;;5035917;28;20033;-77
2021/08/15 05:12:51;;;;;;;7.47;3.33;;;;;;;;;;5035858;28;20029;-77
2021/08/15 05:15:17;;;;;;;7.93;3.40;;;;;;;;;;5033787;28;20026;-77
2021/08/15 05:17:43;;;;;;;7.85;3.20;;;;;;;;;;5035559;28;20030;-75
2021/08/15 05:20:10;;;;;;;9.55;3.83;;;;;;;;;;5034367;28;20500;-76
2021/08/15 05:22:36;;;;;;;9.88;3.80;;;;;;;;;;5035933;28;20052;-75
2021/08/15 05:25:02;;;;;;;8.07;3.92;;;;;;;;;;5035883;28;20029;-76
2021/08/15 05:27:28;;;;;;;8.60;4.50;;;;;;;;;;5035561;28;20025;-75
2021/08/15 05:29:54;;;;;;;10.20;4.13;;;;;;;;;;5035495;28;20543;-75
2021/08/15 05:32:20;;;;;;;9.18;4.60;;;;;;;;;;5035457;28;20029;-75
2021/08/15 05:34:46;;;;;;;8.27;4.57;;;;;;;;;;5035395;28;20108;-77
2021/08/15 05:37:12;;;;;;;9.32;4.40;;;;;;;;;;5035345;28;20030;-75
2021/08/15 05:39:38;;;;;;;9.35;4.10;;;;;;;;;;5035535;28;20037;-76
2021/08/15 05:42:04;;;;;;;9.73;4.22;;;;;;;;;;5035564;28;20057;-76
2021/08/15 05:44:30;;;;;;;9.05;4.55;;;;;;;;;;5035500;28;20021;-75
2021/08/15 05:46:56;;;;;;;8.15;3.80;;;;;;;;;;5035172;28;20026;-76
2021/08/15 05:49:22;;;;;;;8.75;4.43;;;;;;;;;;5035148;28;20367;-77
2021/08/15 05:51:48;;;;;;;9.88;4.60;;;;;;;;;;5035126;28;20056;-77
2021/08/15 05:54:14;;;;;;;9.63;4.28;;;;;;;;;;5035026;28;20407;-78
2021/08/15 05:56:40;;;;;;;8.25;4.28;;;;;;;;;;5034993;28;20112;-76
2021/08/15 05:59:06;;;;;;;11.23;4.13;;;;;;;;;;5035147;28;20105;-75
2021/08/15 06:01:33;;;;;;;9.75;4.63;;;;;;;;;;5034919;28;20443;-77
2021/08/15 06:04:02;;;;;;;10.40;5.30;;;;;;;;;;5034799;28;20486;-76
2021/08/15 06:06:29;;;;;;;11.85;5.68;;;;;;;;;;5034835;28;20163;-76
2021/08/15 06:08:55;;;;;;;9.80;5.03;;;;;;;;;;5033498;28;20045;-76
2021/08/15 06:11:21;;;;;;;9.70;5.13;;;;;;;;;;5034725;28;20029;-77
2021/08/15 06:13:48;;;;;;;8.82;4.90;;;;;;;;;;5034952;28;20032;-75
2021/08/15 06:16:15;;;;;;;9.07;4.35;;;;;;;;;;5034661;28;20021;-76
2021/08/15 06:18:41;;;;;;;8.18;4.28;;;;;;;;;;5034524;28;20421;-75
2021/08/15 06:21:07;;;;;;;7.55;4.10;;;;;;;;;;5034526;28;20078;-76
2021/08/15 06:23:33;;;;;;;7.25;3.92;;;;;;;;;;5034466;28;20025;-75
2021/08/15 06:25:59;;;;;;;5.70;3.80;;;;;;;;;;5034449;28;20029;-76
2021/08/15 06:28:25;;;;;;;5.93;3.70;;;;;;;;;;5033102;28;20075;-76
2021/08/15 06:30:51;;;;;;;5.65;3.97;;;;;;;;;;5034347;28;20029;-76
2021/08/15 06:33:17;;;;;;;7.78;4.28;;;;;;;;;;5034300;28;20366;-76
2021/08/15 06:35:43;;;;;;;6.05;3.95;;;;;;;;;;5034246;28;20021;-77
2021/08/15 06:38:09;;;;;;;5.68;3.38;;;;;;;;;;5034490;28;20040;-75
2021/08/15 06:40:35;;;;;;;7.47;4.18;;;;;;;;;;5034079;28;20030;-74
2021/08/15 06:43:05;;;;;;;7.32;4.15;;;;;;;;;;5034079;28;20037;-76
2021/08/15 06:45:31;;;;;;;7.03;3.92;;;;;;;;;;5034613;28;20378;-77
2021/08/15 06:47:57;;;;;;;6.47;4.45;;;;;;;;;;5034076;28;20025;-76
2021/08/15 06:50:23;;;;;;;8.93;4.75;;;;;;;;;;5034004;28;20033;-77
2021/08/15 06:52:49;;;;;;;6.22;4.10;;;;;;;;;;5032729;28;20390;-76
2021/08/15 06:55:15;;;;;;;6.18;4.18;;;;;;;;;;5033921;28;20025;-77
2021/08/15 06:57:41;;;;;;;6.60;4.22;;;;;;;;;;5033861;28;20083;-75
2021/08/15 07:00:08;;;;;;;5.85;3.83;;;;;;;;;;5034025;28;20596;-77
2021/08/15 07:02:40;;;;;;;6.72;4.18;;;;;;;;;;5033711;28;20025;-77
2021/08/15 07:05:10;;;;;;;6.55;4.13;;;;;;;;;;5033711;28;20482;-76
2021/08/15 07:07:36;;;;;;;7.10;4.55;;;;;;;;;;5033278;28;20466;-75
2021/08/15 07:10:02;;;;;;;7.53;5.10;;;;;;;;;;5033638;28;20029;-75
2021/08/15 07:12:28;;;;;;;8.27;4.47;;;;;;;;;;5033594;28;20037;-75
2021/08/15 07:14:54;;;;;;;7.07;4.25;;;;;;;;;;5033583;28;20029;-78
2021/08/15 07:17:20;;;;;;;6.57;4.43;;;;;;;;;;5033534;28;20033;-78
2021/08/15 07:19:46;;;;;;;7.45;4.55;;;;;;;;;;5033450;28;20030;-79
2021/08/15 07:22:12;;;;;;;6.85;4.60;;;;;;;;;;5033765;28;20025;-75
2021/08/15 07:24:38;;;;;;;8.68;5.40;;;;;;;;;;5033705;28;20025;-76
2021/08/15 07:27:04;;;;;;;7.28;4.85;;;;;;;;;;5033674;28;20025;-76
2021/08/15 07:29:30;;;;;;;8.27;4.88;;;;;;;;;;5033632;28;20363;-75
2021/08/15 07:31:56;;;;;;;7.63;4.78;;;;;;;;;;5033372;28;20025;-75
2021/08/15 07:34:22;;;;;;;8.38;5.28;;;;;;;;;;5033578;28;20032;-77
2021/08/15 07:36:48;;;;;;;9.07;5.28;;;;;;;;;;5033275;28;20033;-76
2021/08/15 07:39:15;;;;;;;7.88;4.70;;;;;;;;;;5032984;28;20060;-77
2021/08/15 07:41:41;;;;;;;7.55;5.18;;;;;;;;;;5033504;28;20056;-77
2021/08/15 07:44:07;;;;;;;9.25;5.43;;;;;;;;;;5033210;28;20049;-76
2021/08/15 07:46:33;;;;;;;8.32;5.60;;;;;;;;;;5033173;28;20049;-76
2021/08/15 07:48:59;;;;;;;8.27;5.47;;;;;;;;;;5033151;28;20430;-75
2021/08/15 07:51:28;;;;;;;8.35;5.50;;;;;;;;;;5033121;28;20490;-77
2021/08/15 07:53:54;;;;;;;8.90;5.47;;;;;;;;;;5033172;28;20026;-77
2021/08/15 07:56:20;;;;;;;7.80;5.13;;;;;;;;;;5033049;28;20034;-77
2021/08/15 07:58:46;;;;;;;9.45;6.00;;;;;;;;;;5032990;28;20033;-76
2021/08/15 08:01:12;;;;;;;9.68;6.22;;;;;;;;;;5031802;28;20030;-77
2021/08/15 08:03:39;;;;;;;9.25;5.45;;;;;;;;;;5032895;28;20055;-76
2021/08/15 08:06:05;;;;;;;7.95;5.22;;;;;;;;;;5033239;28;20046;-75
2021/08/15 08:08:31;;;;;;;9.43;6.10;;;;;;;;;;5033302;28;20022;-76
2021/08/15 08:10:58;;;;;;;8.80;5.53;;;;;;;;;;5032940;28;20025;-76
2021/08/15 08:13:24;;;;;;;9.10;5.70;;;;;;;;;;5032981;28;20080;-75
2021/08/15 08:15:50;;;;;;;9.40;5.68;;;;;;;;;;5033193;28;20060;-77
2021/08/15 08:18:16;;;;;;;9.75;5.70;;;;;;;;;;5032938;28;20022;-76
2021/08/15 08:20:42;;;;;;;8.65;5.38;;;;;;;;;;5033118;28;20474;-77
2021/08/15 08:23:10;;;;;;;8.07;5.07;;;;;;;;;;5032868;28;20033;-78
2021/08/15 08:25:37;;;;;;;7.65;5.18;;;;;;;;;;5033148;28;20446;-77
2021/08/15 08:28:03;;;;;;;8.23;5.00;;;;;;;;;;5031608;28;20017;-76
2021/08/15 08:30:29;;;;;;;7.78;4.88;;;;;;;;;;5032794;28;20490;-76
2021/08/15 08:32:55;;;;;;;8.43;5.25;;;;;;;;;;5033054;28;20465;-76
2021/08/15 08:35:21;;;;;;;7.82;4.60;;;;;;;;;;5032770;28;20382;-75
2021/08/15 08:37:48;;;;;;;7.57;4.43;;;;;;;;;;5031431;28;20030;-76
2021/08/15 08:40:15;;;;;;;7.50;5.28;;;;;;;;;;5032672;28;20033;-77
2021/08/15 08:42:42;;;;;;;6.57;4.22;;;;;;;;;;5032979;28;20017;-77
2021/08/15 08:45:09;;;;;;;6.68;3.88;;;;;;;;;;5032646;28;20025;-77
2021/08/15 08:47:35;;;;;;;5.05;3.25;;;;;;;;;;5032650;28;20021;-77
2021/08/15 08:50:01;;;;;;;4.25;2.75;;;;;;;;;;5032654;28;20029;-75
2021/08/15 08:52:31;;;;;;;5.97;3.00;;;;;;;;;;5034344;28;20033;-75
2021/08/15 08:54:57;;;;;;;4.35;2.42;;;;;;;;;;5036207;28;20060;-74
2021/08/15 08:57:24;;;;;;;4.28;2.63;;;;;;;;;;5036421;28;20033;-77
2021/08/15 08:59:50;;;;;;;5.97;2.63;;;;;;;;;;5036057;28;20072;-75
2021/08/15 09:02:16;;;;;;;5.43;2.72;;;;;;;;;;5035941;28;20429;-77
2021/08/15 09:04:42;;;;;;;5.32;2.72;;;;;;;;;;5036028;28;20076;-76
2021/08/15 09:07:09;;;;;;;5.10;2.78;;;;;;;;;;5035893;28;20517;-76
2021/08/15 09:09:38;;;;;;;4.95;2.67;;;;;;;;;;5035885;28;20128;-76
2021/08/15 09:12:04;;;;;;;4.88;2.78;;;;;;;;;;5034649;28;20025;-76
2021/08/15 09:14:32;;;;;;;6.03;3.35;;;;;;;;;;5036101;28;20033;-78
2021/08/15 09:17:00;;;;;;;5.88;3.70;;;;;;;;;;5036084;28;20021;-77
2021/08/15 09:19:28;;;;;;;6.07;3.25;;;;;;;;;;5035638;28;20033;-77
2021/08/15 09:21:56;;;;;;;4.65;3.13;;;;;;;;;;5034364;28;20026;-76
2021/08/15 09:24:22;;;;;;;5.72;3.13;;;;;;;;;;5035689;28;20025;-78
2021/08/15 09:26:55;;;;;;;4.97;3.10;;;;;;;;;;5035590;28;20474;-76
2021/08/15 09:29:22;;;;;;;5.63;3.35;;;;;;;;;;5034260;28;20025;-75
2021/08/15 09:31:48;;;;;;;5.18;3.40;;;;;;;;;;5035510;28;20105;-76
2021/08/15 09:34:28;;;;;;;6.63;3.42;;;;;;;;;;5035710;28;20025;-76
2021/08/15 09:36:54;;;;;;;;;;;;;;;;;;5036330;28;20105;-77
2021/08/15 09:39:33;;;;;;;5.13;2.70;;;;;;;;;;5035273;28;19996;-77
2021/08/15 09:41:59;;;;;;;5.17;2.53;;;;;;;;;;5035657;28;20438;-75
2021/08/15 09:44:29;;;;;;;3.38;2.42;;;;;;;;;;5035236;28;20095;-78
2021/08/15 09:46:56;;;;;;;3.70;2.60;;;;;;;;;;5035211;28;20025;-77
2021/08/15 09:49:22;;;;;;;2.95;2.00;;;;;;;;;;5035144;28;20460;-75
2021/08/15 09:51:48;;;;;;;4.43;2.40;;;;;;;;;;5035098;28;20068;-77
2021/08/15 09:54:17;;;;;;;3.50;2.03;;;;;;;;;;5035047;28;20030;-76
2021/08/15 09:56:43;;;;;;;2.03;1.80;;;;;;;;;;5035335;28;20025;-76
2021/08/15 09:59:12;;;;;;;1.98;1.67;;;;;;;;;;5035144;28;20359;-75
2021/08/15 10:01:39;;;;;;;4.07;2.15;;;;;;;;;;5034587;28;20025;-76
2021/08/15 10:04:06;;;;;;;2.42;1.85;;;;;;;;;;5035664;28;20075;-76
2021/08/15 10:06:32;;;;;;;2.13;1.63;;;;;;;;;;5034826;28;20049;-76
2021/08/15 10:08:59;;;;;;;2.28;1.88;;;;;;;;;;5033509;28;20029;-75
2021/08/15 10:11:25;;;;;;;3.35;1.88;;;;;;;;;;5034803;28;20047;-76
2021/08/15 10:13:51;;;;;;;3.42;1.88;;;;;;;;;;5034721;28;20021;-78
2021/08/15 10:16:18;;;;;;;2.20;1.70;;;;;;;;;;5034639;28;20035;-77
2021/08/15 10:18:48;;;;;;;2.08;1.67;;;;;;;;;;5034604;28;20025;-77
2021/08/15 10:21:14;;;;;;;;;;;;;;;;;;5035567;28;20027;-75
2021/08/15 10:23:41;;;;;;;2.42;1.60;;;;;;;;;;5034810;28;19905;-74
2021/08/15 10:26:26;;;;;;;1.30;1.20;;;;;;;;;;5034500;28;20026;-76
2021/08/15 10:28:53;;;;;;;1.52;1.30;;;;;;;;;;5034680;28;20500;-76
2021/08/15 10:31:19;;;;;;;2.10;1.08;;;;;;;;;;5034413;28;20363;-75
2021/08/15 10:33:55;;;;;;;1.52;1.30;;;;;;;;;;5034339;28;20018;-76
2021/08/15 10:36:21;;;;;;;2.40;1.00;;;;;;;;;;5033555;28;20363;-76
2021/08/15 10:38:48;;;;;;;1.00;0.90;;;;;;;;;;5034153;28;20075;-77
2021/08/15 10:41:33;;;;;;;1.10;1.00;;;;;;;;;;5034735;28;20025;-76
2021/08/15 10:44:00;;;;;;;1.00;1.00;;;;;;;;;;5034472;28;20045;-77
2021/08/15 10:46:26;;;;;;;1.38;1.00;;;;;;;;;;5034109;28;20029;-77
2021/08/15 10:48:53;;;;;;;0.95;0.95;;;;;;;;;;5034039;28;20023;-76
2021/08/15 10:51:38;;;;;;;0.70;0.70;;;;;;;;;;5034218;28;20033;-76
2021/08/15 10:54:04;;;;;;;0.82;0.80;;;;;;;;;;5032691;28;20025;-75
2021/08/15 10:56:48;;;;;;;1.85;1.05;;;;;;;;;;5034180;28;20104;-78
2021/08/15 10:59:33;;;;;;;0.90;0.80;;;;;;;;;;5034059;28;20033;-75
2021/08/15 11:02:15;;;;;;;1.27;0.95;;;;;;;;;;5033993;28;20025;-78
2021/08/15 11:04:53;;;;;;;0.73;0.70;;;;;;;;;;5034036;28;20501;-76
2021/08/15 11:07:36;;;;;;;0.80;0.80;;;;;;;;;;5033689;28;20103;-77
2021/08/15 11:10:03;;;;;;;1.27;0.90;;;;;;;;;;5033958;28;20112;-76
2021/08/15 11:12:30;;;;;;;0.82;0.65;;;;;;;;;;5033638;28;20033;-77
2021/08/15 11:15:04;;;;;;;0.70;0.70;;;;;;;;;;5032951;28;20033;-76
2021/08/15 11:17:31;;;;;;;0.80;0.80;;;;;;;;;;5033911;28;20029;-77
2021/08/15 11:20:17;;;;;;;0.82;0.70;;;;;;;;;;5034032;28;20029;-77
2021/08/15 11:22:43;;;;;;;0.60;0.60;;;;;;;;;;5033374;28;20063;-77
2021/08/15 11:25:09;;;;;;;1.10;0.70;;;;;;;;;;5033468;28;20099;-78
2021/08/15 11:27:36;;;;;;;3.10;0.85;;;;;;;;;;5032203;28;20033;-75
2021/08/15 11:30:12;;;;;;;0.70;0.70;;;;;;;;;;5033435;28;20107;-78
2021/08/15 11:32:38;;;;;;;0.52;0.52;;;;;;;;;;5031838;28;20026;-77
2021/08/15 11:35:13;;;;;;;0.57;0.57;;;;;;;;;;5033326;28;20037;-78
2021/08/15 11:37:41;;;;;;;0.60;0.60;;;;;;;;;;5033609;28;20083;-76
2021/08/15 11:40:10;;;;;;;1.30;0.77;;;;;;;;;;5033510;28;20051;-77
2021/08/15 11:42:36;;;;;;;0.68;0.50;;;;;;;;;;5033549;28;20482;-76
2021/08/15 11:45:05;;;;;;;0.50;0.50;;;;;;;;;;5033175;28;20064;-76
2021/08/15 11:47:31;;;;;;;0.88;0.70;;;;;;;;;;5033158;28;20494;-75
2021/08/15 11:49:59;;;;;;;0.80;0.40;;;;;;;;;;5033450;28;20037;-77
2021/08/15 11:52:36;;;;;;;0.60;0.60;;;;;;;;;;5033194;28;20056;-76
2021/08/15 11:55:03;;;;;;;0.95;0.70;;;;;;;;;;5031631;28;20030;-76
2021/08/15 11:57:43;;;;;;;1.23;0.38;;;;;;;;;;5033438;28;20029;-76
2021/08/15 12:00:09;;;;;;;1.10;0.70;;;;;;;;;;5033356;28;20064;-77
2021/08/15 12:02:35;;;;;;;1.85;1.00;;;;;;;;;;5033228;28;20025;-76
2021/08/15 12:05:02;;;;;;;0.98;0.70;;;;;;;;;;5033289;28;20469;-77
2021/08/15 12:07:28;;;;;;;0.50;0.50;;;;;;;;;;5031868;28;20053;-76
2021/08/15 12:10:12;;;;;;;1.38;0.80;;;;;;;;;;5033044;28;20104;-76
2021/08/15 12:12:38;;;;;;;1.33;1.00;;;;;;;;;;5032950;28;20521;-77
2021/08/15 12:15:07;;;;;;;1.85;1.00;;;;;;;;;;5031669;28;20021;-77
2021/08/15 12:17:49;;;;;;;2.53;1.05;;;;;;;;;;5031651;28;20030;-75
2021/08/15 12:20:19;;;;;;;2.17;1.30;;;;;;;;;;5033061;28;20022;-77
2021/08/15 12:22:45;;;;;;;2.10;1.25;;;;;;;;;;5032911;28;20386;-77
2021/08/15 12:25:18;;;;;;;2.63;1.25;;;;;;;;;;5034331;28;20470;-77
2021/08/15 12:27:44;;;;;;;3.63;1.20;;;;;;;;;;5037033;28;20152;-76
2021/08/15 12:30:10;;;;;;;2.38;1.30;;;;;;;;;;5036980;28;20266;-76
2021/08/15 12:32:36;;;;;;;1.70;1.10;;;;;;;;;;5036672;28;20029;-75
2021/08/15 12:35:03;;;;;;;2.42;1.20;;;;;;;;;;5036891;28;20033;-77
2021/08/15 12:37:37;;;;;;;2.30;1.13;;;;;;;;;;5036545;28;20036;-76
2021/08/15 12:40:04;;;;;;;4.43;1.77;;;;;;;;;;5036726;28;20076;-76
2021/08/15 12:42:32;;;;;;;3.85;1.45;;;;;;;;;;5036647;28;20060;-75
2021/08/15 12:44:59;;;;;;;3.08;1.48;;;;;;;;;;5036406;28;20100;-78
2021/08/15 12:47:27;;;;;;;3.08;1.63;;;;;;;;;;5036328;28;20033;-75
2021/08/15 12:50:01;;;;;;;2.40;1.48;;;;;;;;;;5036273;28;20064;-76
2021/08/15 12:52:29;;;;;;;7.47;2.25;;;;;;;;;;5036827;28;20087;-75
2021/08/15 12:55:06;;;;;;;3.28;1.48;;;;;;;;;;5036461;28;20032;-75
2021/08/15 12:57:32;;;;;;;2.08;1.60;;;;;;;;;;5036353;28;20095;-78
2021/08/15 12:59:58;;;;;;;4.88;1.88;;;;;;;;;;5035976;28;20021;-74
2021/08/15 13:02:25;;;;;;;2.80;1.70;;;;;;;;;;5036242;28;20021;-75
2021/08/15 13:04:55;;;;;;;4.10;1.90;;;;;;;;;;5036216;28;20036;-77
2021/08/15 13:07:21;;;;;;;3.13;1.80;;;;;;;;;;5034739;28;20053;-76
2021/08/15 13:09:47;;;;;;;7.07;2.53;;;;;;;;;;5036434;28;20026;-77
2021/08/15 13:12:13;;;;;;;4.97;2.15;;;;;;;;;;5035841;28;20037;-77
2021/08/15 13:14:39;;;;;;;4.38;2.00;;;;;;;;;;5034500;28;20477;-76
2021/08/15 13:17:05;;;;;;;3.35;1.85;;;;;;;;;;5035785;28;20037;-76
2021/08/15 13:19:31;;;;;;;5.32;2.47;;;;;;;;;;5036245;28;20032;-75
2021/08/15 13:21:57;;;;;;;7.05;2.17;;;;;;;;;;5035715;28;20056;-77
2021/08/15 13:24:24;;;;;;;6.07;3.15;;;;;;;;;;5035608;28;20018;-75
2021/08/15 13:26:50;;;;;;;7.35;2.47;;;;;;;;;;5034365;28;20026;-76
2021/08/15 13:29:16;;;;;;;6.03;2.22;;;;;;;;;;5035806;28;20033;-77
2021/08/15 13:31:42;;;;;;;4.95;2.72;;;;;;;;;;5035506;28;20025;-75
2021/08/15 13:34:08;;;;;;;9.45;2.17;;;;;;;;;;5035767;28;20017;-75
2021/08/15 13:36:34;;;;;;;7.00;2.75;;;;;;;;;;5034910;28;20032;-76
2021/08/15 13:39:00;;;;;;;7.93;2.90;;;;;;;;;;5035264;28;20030;-77
2021/08/15 13:41:26;;;;;;;6.70;2.72;;;;;;;;;;5035617;28;20028;-76
2021/08/15 13:43:52;;;;;;;6.50;2.88;;;;;;;;;;5035273;28;20533;-76
2021/08/15 13:46:18;;;;;;;7.50;2.78;;;;;;;;;;5035522;28;20021;-76
2021/08/15 13:48:44;;;;;;;5.75;2.78;;;;;;;;;;5035208;28;20026;-77
2021/08/15 13:51:12;;;;;;;7.20;2.85;;;;;;;;;;5035459;28;20013;-76
2021/08/15 13:53:38;;;;;;;5.97;2.75;;;;;;;;;;5035184;28;20022;-76
2021/08/15 13:56:05;;;;;;;5.75;2.67;;;;;;;;;;5035058;28;20559;-77
2021/08/15 13:58:32;;;;;;;7.95;2.95;;;;;;;;;;5035600;28;20088;-75
2021/08/15 14:00:59;;;;;;;8.00;2.97;;;;;;;;;;5034981;28;20075;-76
2021/08/15 14:03:25;;;;;;;7.13;2.65;;;;;;;;;;5034855;28;20025;-75
2021/08/15 14:05:51;;;;;;;6.00;2.55;;;;;;;;;;5034961;28;20017;-75
2021/08/15 14:08:17;;;;;;;7.85;2.80;;;;;;;;;;5035236;28;20052;-75
2021/08/15 14:10:44;;;;;;;7.75;3.03;;;;;;;;;;5034805;28;20025;-75
2021/08/15 14:13:10;;;;;;;8.15;2.90;;;;;;;;;;5033850;28;20041;-77
2021/08/15 14:15:36;;;;;;;7.05;3.03;;;;;;;;;;5034712;28;20029;-75
2021/08/15 14:18:02;;;;;;;7.78;3.22;;;;;;;;;;5034579;28;20025;-75
2021/08/15 14:20:29;;;;;;;6.38;2.85;;;;;;;;;;5034451;28;20608;-76
2021/08/15 14:22:55;;;;;;;7.88;2.65;;;;;;;;;;5034599;28;20401;-75
2021/08/15 14:25:21;;;;;;;7.20;2.88;;;;;;;;;;5034508;28;20029;-78
2021/08/15 14:27:47;;;;;;;7.80;2.97;;;;;;;;;;5034530;28;20021;-75
2021/08/15 14:30:14;;;;;;;7.43;2.90;;;;;;;;;;5034986;28;20114;-76
2021/08/15 14:32:41;;;;;;;8.32;3.00;;;;;;;;;;5034680;28;20036;-75
2021/08/15 14:35:08;;;;;;;5.85;2.60;;;;;;;;;;5034291;28;20033;-74
2021/08/15 14:37:34;;;;;;;8.45;2.92;;;;;;;;;;5034539;28;20037;-77
2021/08/15 14:40:01;;;;;;;6.85;2.75;;;;;;;;;;5034413;28;20116;-76
2021/08/15 14:42:27;;;;;;;5.80;2.70;;;;;;;;;;5034493;28;20027;-76